sensor_id;sensor_type;location;lat;lon;timestamp;pressure;altitude;pressure_sealevel;temperature;humidity
53635;BME280;39542;-34.932;138.594;2023-04-01T00:00:33;101603.31;;;20.87;54.11
53635;BME280;39542;-34.932;138.594;2023-04-01T00:01:09;101599.71;;;20.88;54.11
53635;BME280;39542;-34.932;138.594;2023-04-01T00:01:43;101604.95;;;20.94;53.79
53635;BME280;39542;-34.932;138.594;2023-04-01T00:02:18;101607.38;;;20.93;53.91
53635;BME280;39542;-34.932;138.594;2023-04-01T00:02:52;101594.32;;;20.89;54.13
53635;BME280;39542;-34.932;138.594;2023-04-01T00:03:28;101601.11;;;20.88;54.02
53635;BME280;39542;-34.932;138.594;2023-04-01T00:04:03;101601.71;;;20.85;54.15
53635;BME280;39542;-34.932;138.594;2023-04-01T00:04:37;101603.27;;;20.85;54.26
53635;BME280;39542;-34.932;138.594;2023-04-01T00:05:12;101601.36;;;20.87;54.57
53635;BME280;39542;-34.932;138.594;2023-04-01T00:05:47;101602.52;;;20.89;54.59
53635;BME280;39542;-34.932;138.594;2023-04-01T00:06:22;101602.27;;;20.89;54.34
53635;BME280;39542;-34.932;138.594;2023-04-01T00:06:57;101599.64;;;20.85;54.46
53635;BME280;39542;-34.932;138.594;2023-04-01T00:07:32;101598.97;;;20.86;54.56
53635;BME280;39542;-34.932;138.594;2023-04-01T00:08:07;101599.30;;;20.90;54.44
53635;BME280;39542;-34.932;138.594;2023-04-01T00:08:41;101599.15;;;20.91;54.42
53635;BME280;39542;-34.932;138.594;2023-04-01T00:09:16;101596.57;;;20.88;54.43
53635;BME280;39542;-34.932;138.594;2023-04-01T00:09:50;101598.10;;;20.89;54.56
53635;BME280;39542;-34.932;138.594;2023-04-01T00:10:26;101593.05;;;20.89;54.50
53635;BME280;39542;-34.932;138.594;2023-04-01T00:11:01;101599.03;;;20.90;54.59
53635;BME280;39542;-34.932;138.594;2023-04-01T00:11:35;101597.65;;;20.93;54.58
53635;BME280;39542;-34.932;138.594;2023-04-01T00:12:10;101593.44;;;20.93;54.56
53635;BME280;39542;-34.932;138.594;2023-04-01T00:12:45;101590.28;;;20.93;54.53
53635;BME280;39542;-34.932;138.594;2023-04-01T00:13:20;101593.03;;;20.93;54.49
53635;BME280;39542;-34.932;138.594;2023-04-01T00:13:56;101597.95;;;20.90;54.49
53635;BME280;39542;-34.932;138.594;2023-04-01T00:14:30;101594.94;;;20.91;54.46
53635;BME280;39542;-34.932;138.594;2023-04-01T00:15:07;101601.68;;;20.93;54.41
53635;BME280;39542;-34.932;138.594;2023-04-01T00:15:43;101593.13;;;20.90;54.52
53635;BME280;39542;-34.932;138.594;2023-04-01T00:16:18;101597.33;;;20.90;54.47
53635;BME280;39542;-34.932;138.594;2023-04-01T00:16:52;101599.57;;;20.93;54.42
53635;BME280;39542;-34.932;138.594;2023-04-01T00:17:27;101600.57;;;20.93;54.44
53635;BME280;39542;-34.932;138.594;2023-04-01T00:18:02;101591.07;;;20.93;54.54
53635;BME280;39542;-34.932;138.594;2023-04-01T00:18:36;101596.27;;;20.95;54.56
53635;BME280;39542;-34.932;138.594;2023-04-01T00:19:10;101595.29;;;20.96;53.96
53635;BME280;39542;-34.932;138.594;2023-04-01T00:19:45;101594.74;;;20.94;54.07
53635;BME280;39542;-34.932;138.594;2023-04-01T00:20:20;101592.52;;;20.92;54.15
53635;BME280;39542;-34.932;138.594;2023-04-01T00:20:56;101593.77;;;20.96;53.96
53635;BME280;39542;-34.932;138.594;2023-04-01T00:21:30;101598.50;;;20.99;53.73
53635;BME280;39542;-34.932;138.594;2023-04-01T00:22:04;101595.54;;;20.97;54.01
53635;BME280;39542;-34.932;138.594;2023-04-01T00:22:39;101596.17;;;20.98;53.86
53635;BME280;39542;-34.932;138.594;2023-04-01T00:23:13;101596.89;;;20.92;53.95
53635;BME280;39542;-34.932;138.594;2023-04-01T00:23:48;101597.54;;;20.92;54.11
53635;BME280;39542;-34.932;138.594;2023-04-01T00:24:23;101602.89;;;20.96;53.85
53635;BME280;39542;-34.932;138.594;2023-04-01T00:24:57;101605.43;;;20.98;53.91
53635;BME280;39542;-34.932;138.594;2023-04-01T00:25:33;101600.30;;;20.97;54.06
53635;BME280;39542;-34.932;138.594;2023-04-01T00:26:08;101599.90;;;20.95;54.00
53635;BME280;39542;-34.932;138.594;2023-04-01T00:26:42;101604.21;;;20.97;54.19
53635;BME280;39542;-34.932;138.594;2023-04-01T00:27:17;101604.29;;;20.95;54.19
53635;BME280;39542;-34.932;138.594;2023-04-01T00:27:52;101604.48;;;20.95;54.13
53635;BME280;39542;-34.932;138.594;2023-04-01T00:28:27;101601.21;;;20.98;53.89
53635;BME280;39542;-34.932;138.594;2023-04-01T00:29:01;101603.46;;;20.97;53.78
53635;BME280;39542;-34.932;138.594;2023-04-01T00:29:36;101605.34;;;20.94;53.76
53635;BME280;39542;-34.932;138.594;2023-04-01T00:30:11;101612.65;;;20.96;53.48
53635;BME280;39542;-34.932;138.594;2023-04-01T00:30:47;101606.01;;;20.92;53.19
53635;BME280;39542;-34.932;138.594;2023-04-01T00:31:21;101610.49;;;20.94;51.85
53635;BME280;39542;-34.932;138.594;2023-04-01T00:31:56;101609.86;;;20.95;51.58
53635;BME280;39542;-34.932;138.594;2023-04-01T00:32:30;101609.72;;;20.98;51.56
53635;BME280;39542;-34.932;138.594;2023-04-01T00:33:05;101606.78;;;20.94;52.62
53635;BME280;39542;-34.932;138.594;2023-04-01T00:33:39;101607.39;;;20.99;52.64
53635;BME280;39542;-34.932;138.594;2023-04-01T00:34:15;101608.97;;;21.00;52.88
53635;BME280;39542;-34.932;138.594;2023-04-01T00:34:52;101614.68;;;20.92;52.83
53635;BME280;39542;-34.932;138.594;2023-04-01T00:35:27;101615.36;;;20.94;52.79
53635;BME280;39542;-34.932;138.594;2023-04-01T00:36:09;101616.64;;;20.96;52.77
53635;BME280;39542;-34.932;138.594;2023-04-01T00:36:43;101619.25;;;20.95;52.86
53635;BME280;39542;-34.932;138.594;2023-04-01T00:37:18;101619.90;;;20.95;53.15
53635;BME280;39542;-34.932;138.594;2023-04-01T00:37:54;101619.00;;;20.93;53.10
53635;BME280;39542;-34.932;138.594;2023-04-01T00:38:28;101621.56;;;20.92;53.15
53635;BME280;39542;-34.932;138.594;2023-04-01T00:39:02;101619.97;;;20.91;53.14
53635;BME280;39542;-34.932;138.594;2023-04-01T00:39:37;101619.69;;;20.93;53.16
53635;BME280;39542;-34.932;138.594;2023-04-01T00:40:25;101622.28;;;20.91;53.41
53635;BME280;39542;-34.932;138.594;2023-04-01T00:41:01;101624.96;;;20.88;53.82
53635;BME280;39542;-34.932;138.594;2023-04-01T00:41:36;101623.91;;;20.92;53.55
53635;BME280;39542;-34.932;138.594;2023-04-01T00:42:11;101628.49;;;20.98;53.03
53635;BME280;39542;-34.932;138.594;2023-04-01T00:42:46;101629.53;;;21.02;53.03
53635;BME280;39542;-34.932;138.594;2023-04-01T00:43:21;101629.00;;;20.97;53.04
53635;BME280;39542;-34.932;138.594;2023-04-01T00:44:17;101634.17;;;20.94;53.36
53635;BME280;39542;-34.932;138.594;2023-04-01T00:44:54;101635.20;;;20.98;53.06
53635;BME280;39542;-34.932;138.594;2023-04-01T00:45:33;101633.25;;;20.97;53.20
53635;BME280;39542;-34.932;138.594;2023-04-01T00:46:09;101635.51;;;20.98;53.09
53635;BME280;39542;-34.932;138.594;2023-04-01T00:46:44;101636.40;;;20.96;53.13
53635;BME280;39542;-34.932;138.594;2023-04-01T00:47:19;101639.07;;;20.95;53.29
53635;BME280;39542;-34.932;138.594;2023-04-01T00:47:54;101638.33;;;20.94;53.16
53635;BME280;39542;-34.932;138.594;2023-04-01T00:48:31;101637.07;;;20.93;53.33
53635;BME280;39542;-34.932;138.594;2023-04-01T00:49:07;101628.52;;;20.94;53.17
53635;BME280;39542;-34.932;138.594;2023-04-01T00:49:45;101631.69;;;20.92;53.24
53635;BME280;39542;-34.932;138.594;2023-04-01T00:50:21;101628.51;;;20.94;53.27
53635;BME280;39542;-34.932;138.594;2023-04-01T00:50:58;101628.27;;;20.92;53.12
53635;BME280;39542;-34.932;138.594;2023-04-01T00:51:34;101629.43;;;20.91;53.15
53635;BME280;39542;-34.932;138.594;2023-04-01T00:52:10;101623.76;;;20.92;53.06
53635;BME280;39542;-34.932;138.594;2023-04-01T00:52:45;101619.93;;;20.93;53.12
53635;BME280;39542;-34.932;138.594;2023-04-01T00:53:21;101619.71;;;20.96;52.98
53635;BME280;39542;-34.932;138.594;2023-04-01T00:53:58;101617.82;;;20.93;53.12
53635;BME280;39542;-34.932;138.594;2023-04-01T00:54:34;101613.72;;;20.89;51.52
53635;BME280;39542;-34.932;138.594;2023-04-01T00:55:09;101615.10;;;20.90;51.70
53635;BME280;39542;-34.932;138.594;2023-04-01T00:55:50;101613.05;;;20.94;52.06
53635;BME280;39542;-34.932;138.594;2023-04-01T00:56:30;101613.76;;;20.98;52.12
53635;BME280;39542;-34.932;138.594;2023-04-01T00:57:08;101615.19;;;20.96;52.53
53635;BME280;39542;-34.932;138.594;2023-04-01T00:57:44;101611.35;;;20.92;52.60
53635;BME280;39542;-34.932;138.594;2023-04-01T00:58:24;101607.01;;;20.91;52.70
53635;BME280;39542;-34.932;138.594;2023-04-01T00:59:04;101608.64;;;20.90;52.65
53635;BME280;39542;-34.932;138.594;2023-04-01T00:59:45;101606.16;;;20.91;52.74
53635;BME280;39542;-34.932;138.594;2023-04-01T01:00:20;101607.04;;;20.91;52.80
53635;BME280;39542;-34.932;138.594;2023-04-01T01:00:55;101609.57;;;20.88;52.77
53635;BME280;39542;-34.932;138.594;2023-04-01T01:01:32;101610.74;;;20.88;52.82
53635;BME280;39542;-34.932;138.594;2023-04-01T01:02:10;101607.38;;;20.87;53.00
53635;BME280;39542;-34.932;138.594;2023-04-01T01:02:46;101604.30;;;20.90;52.87
53635;BME280;39542;-34.932;138.594;2023-04-01T01:03:23;101602.77;;;20.91;52.87
53635;BME280;39542;-34.932;138.594;2023-04-01T01:03:57;101606.20;;;20.90;52.88
53635;BME280;39542;-34.932;138.594;2023-04-01T01:04:33;101607.00;;;20.88;52.98
53635;BME280;39542;-34.932;138.594;2023-04-01T01:05:09;101606.94;;;20.88;53.01
53635;BME280;39542;-34.932;138.594;2023-04-01T01:06:08;101604.75;;;20.88;52.90
53635;BME280;39542;-34.932;138.594;2023-04-01T01:06:50;101603.75;;;20.90;52.96
53635;BME280;39542;-34.932;138.594;2023-04-01T01:07:31;101604.58;;;20.91;52.93
53635;BME280;39542;-34.932;138.594;2023-04-01T01:08:15;101602.09;;;20.92;53.01
53635;BME280;39542;-34.932;138.594;2023-04-01T01:09:04;101606.24;;;20.91;53.05
53635;BME280;39542;-34.932;138.594;2023-04-01T01:09:46;101608.37;;;20.91;52.92
53635;BME280;39542;-34.932;138.594;2023-04-01T01:10:29;101605.99;;;20.91;52.93
53635;BME280;39542;-34.932;138.594;2023-04-01T01:11:07;101606.61;;;20.91;52.97
53635;BME280;39542;-34.932;138.594;2023-04-01T01:11:45;101611.16;;;20.91;52.96
53635;BME280;39542;-34.932;138.594;2023-04-01T01:12:25;101609.19;;;20.89;53.11
53635;BME280;39542;-34.932;138.594;2023-04-01T01:13:09;101603.18;;;20.91;53.10
53635;BME280;39542;-34.932;138.594;2023-04-01T01:13:52;101606.81;;;20.94;53.02
53635;BME280;39542;-34.932;138.594;2023-04-01T01:14:41;101602.78;;;20.93;52.88
53635;BME280;39542;-34.932;138.594;2023-04-01T01:15:23;101600.98;;;20.91;52.94
53635;BME280;39542;-34.932;138.594;2023-04-01T01:16:03;101601.18;;;20.90;52.90
53635;BME280;39542;-34.932;138.594;2023-04-01T01:16:45;101600.24;;;20.90;52.88
53635;BME280;39542;-34.932;138.594;2023-04-01T01:17:29;101597.24;;;20.87;52.92
53635;BME280;39542;-34.932;138.594;2023-04-01T01:18:12;101602.86;;;20.89;53.02
53635;BME280;39542;-34.932;138.594;2023-04-01T01:18:56;101604.74;;;20.89;52.94
53635;BME280;39542;-34.932;138.594;2023-04-01T01:20:29;101605.55;;;20.89;53.21
53635;BME280;39542;-34.932;138.594;2023-04-01T01:21:20;101601.40;;;20.91;53.10
53635;BME280;39542;-34.932;138.594;2023-04-01T01:22:17;101597.06;;;20.88;53.03
53635;BME280;39542;-34.932;138.594;2023-04-01T01:23:06;101605.88;;;20.89;53.07
53635;BME280;39542;-34.932;138.594;2023-04-01T01:24:33;101596.83;;;20.93;52.89
53635;BME280;39542;-34.932;138.594;2023-04-01T01:25:26;101601.10;;;20.89;52.98
53635;BME280;39542;-34.932;138.594;2023-04-01T01:26:20;101602.73;;;20.89;53.10
53635;BME280;39542;-34.932;138.594;2023-04-01T01:27:03;101602.34;;;20.89;53.00
53635;BME280;39542;-34.932;138.594;2023-04-01T01:27:39;101603.67;;;20.90;53.04
53635;BME280;39542;-34.932;138.594;2023-04-01T01:28:29;101600.90;;;20.93;52.90
53635;BME280;39542;-34.932;138.594;2023-04-01T01:29:16;101596.82;;;20.92;53.00
53635;BME280;39542;-34.932;138.594;2023-04-01T01:30:19;101599.90;;;20.92;52.75
53635;BME280;39542;-34.932;138.594;2023-04-01T01:30:59;101598.80;;;20.91;52.83
53635;BME280;39542;-34.932;138.594;2023-04-01T01:31:42;101598.81;;;20.93;52.77
53635;BME280;39542;-34.932;138.594;2023-04-01T01:32:32;101599.34;;;20.91;52.83
53635;BME280;39542;-34.932;138.594;2023-04-01T01:33:29;101594.89;;;20.89;52.96
53635;BME280;39542;-34.932;138.594;2023-04-01T01:34:16;101594.35;;;20.91;52.86
53635;BME280;39542;-34.932;138.594;2023-04-01T01:35:04;101592.56;;;20.91;52.71
53635;BME280;39542;-34.932;138.594;2023-04-01T01:35:41;101591.53;;;20.89;52.77
53635;BME280;39542;-34.932;138.594;2023-04-01T01:36:18;101591.07;;;20.87;52.66
53635;BME280;39542;-34.932;138.594;2023-04-01T01:36:57;101587.54;;;20.88;52.55
53635;BME280;39542;-34.932;138.594;2023-04-01T01:37:34;101588.44;;;20.93;52.47
53635;BME280;39542;-34.932;138.594;2023-04-01T01:38:13;101590.98;;;20.95;52.38
53635;BME280;39542;-34.932;138.594;2023-04-01T01:38:50;101587.94;;;20.96;52.48
53635;BME280;39542;-34.932;138.594;2023-04-01T01:39:29;101587.06;;;20.94;52.46
53635;BME280;39542;-34.932;138.594;2023-04-01T01:40:08;101588.13;;;20.96;52.43
53635;BME280;39542;-34.932;138.594;2023-04-01T01:40:48;101588.94;;;20.95;52.40
53635;BME280;39542;-34.932;138.594;2023-04-01T01:41:26;101586.59;;;20.93;52.60
53635;BME280;39542;-34.932;138.594;2023-04-01T01:42:04;101587.38;;;20.92;52.51
53635;BME280;39542;-34.932;138.594;2023-04-01T01:42:44;101585.53;;;20.89;52.61
53635;BME280;39542;-34.932;138.594;2023-04-01T01:43:23;101584.90;;;20.91;52.79
53635;BME280;39542;-34.932;138.594;2023-04-01T01:44:00;101581.13;;;20.92;52.65
53635;BME280;39542;-34.932;138.594;2023-04-01T01:44:37;101583.85;;;20.93;52.50
53635;BME280;39542;-34.932;138.594;2023-04-01T01:45:13;101583.85;;;20.92;52.46
53635;BME280;39542;-34.932;138.594;2023-04-01T01:45:52;101578.85;;;20.92;52.10
53635;BME280;39542;-34.932;138.594;2023-04-01T01:46:30;101578.07;;;20.93;52.44
53635;BME280;39542;-34.932;138.594;2023-04-01T01:47:05;101582.66;;;20.92;52.50
53635;BME280;39542;-34.932;138.594;2023-04-01T01:47:40;101585.26;;;20.89;52.30
53635;BME280;39542;-34.932;138.594;2023-04-01T01:48:16;101584.78;;;20.91;52.29
53635;BME280;39542;-34.932;138.594;2023-04-01T01:48:52;101584.47;;;20.90;52.34
53635;BME280;39542;-34.932;138.594;2023-04-01T01:49:29;101588.26;;;20.92;52.05
53635;BME280;39542;-34.932;138.594;2023-04-01T01:50:06;101587.63;;;20.92;52.02
53635;BME280;39542;-34.932;138.594;2023-04-01T01:50:41;101581.86;;;20.94;52.01
53635;BME280;39542;-34.932;138.594;2023-04-01T01:51:17;101582.70;;;20.93;52.01
53635;BME280;39542;-34.932;138.594;2023-04-01T01:51:53;101581.18;;;20.91;52.09
53635;BME280;39542;-34.932;138.594;2023-04-01T01:52:29;101580.91;;;20.90;52.13
53635;BME280;39542;-34.932;138.594;2023-04-01T01:53:06;101580.65;;;20.89;52.27
53635;BME280;39542;-34.932;138.594;2023-04-01T01:53:41;101580.86;;;20.90;52.27
53635;BME280;39542;-34.932;138.594;2023-04-01T01:54:17;101579.16;;;20.93;52.33
53635;BME280;39542;-34.932;138.594;2023-04-01T01:54:52;101576.94;;;20.94;52.44
53635;BME280;39542;-34.932;138.594;2023-04-01T01:55:30;101577.23;;;20.92;52.55
53635;BME280;39542;-34.932;138.594;2023-04-01T01:56:06;101578.47;;;20.93;52.46
53635;BME280;39542;-34.932;138.594;2023-04-01T01:57:17;101572.37;;;20.91;52.44
53635;BME280;39542;-34.932;138.594;2023-04-01T01:57:53;101569.67;;;20.93;52.38
53635;BME280;39542;-34.932;138.594;2023-04-01T01:58:32;101570.90;;;20.92;52.30
53635;BME280;39542;-34.932;138.594;2023-04-01T01:59:10;101571.67;;;20.92;52.34
53635;BME280;39542;-34.932;138.594;2023-04-01T01:59:47;101575.08;;;20.92;52.31
53635;BME280;39542;-34.932;138.594;2023-04-01T02:00:23;101575.77;;;20.95;52.26
53635;BME280;39542;-34.932;138.594;2023-04-01T02:00:59;101575.07;;;20.95;52.18
53635;BME280;39542;-34.932;138.594;2023-04-01T02:01:38;101572.83;;;20.94;52.18
53635;BME280;39542;-34.932;138.594;2023-04-01T02:02:13;101575.84;;;20.91;52.23
53635;BME280;39542;-34.932;138.594;2023-04-01T02:02:49;101574.72;;;20.90;52.38
53635;BME280;39542;-34.932;138.594;2023-04-01T02:03:27;101571.50;;;20.88;52.40
53635;BME280;39542;-34.932;138.594;2023-04-01T02:04:02;101570.68;;;20.94;52.35
53635;BME280;39542;-34.932;138.594;2023-04-01T02:04:38;101571.85;;;20.97;52.30
53635;BME280;39542;-34.932;138.594;2023-04-01T02:05:18;101569.34;;;20.98;52.31
53635;BME280;39542;-34.932;138.594;2023-04-01T02:05:55;101572.12;;;20.95;52.38
53635;BME280;39542;-34.932;138.594;2023-04-01T02:06:33;101574.92;;;20.93;52.49
53635;BME280;39542;-34.932;138.594;2023-04-01T02:07:11;101572.42;;;20.88;52.55
53635;BME280;39542;-34.932;138.594;2023-04-01T02:07:52;101567.68;;;20.89;52.71
53635;BME280;39542;-34.932;138.594;2023-04-01T02:08:34;101571.42;;;20.92;52.58
53635;BME280;39542;-34.932;138.594;2023-04-01T02:09:10;101570.50;;;20.92;52.67
53635;BME280;39542;-34.932;138.594;2023-04-01T02:09:46;101575.23;;;20.92;52.56
53635;BME280;39542;-34.932;138.594;2023-04-01T02:10:23;101572.14;;;20.92;52.60
53635;BME280;39542;-34.932;138.594;2023-04-01T02:11:02;101573.00;;;20.92;52.46
53635;BME280;39542;-34.932;138.594;2023-04-01T02:11:40;101575.12;;;20.93;52.43
53635;BME280;39542;-34.932;138.594;2023-04-01T02:12:16;101570.39;;;20.93;52.29
53635;BME280;39542;-34.932;138.594;2023-04-01T02:12:54;101567.94;;;20.94;52.23
53635;BME280;39542;-34.932;138.594;2023-04-01T02:13:35;101564.45;;;20.91;52.19
53635;BME280;39542;-34.932;138.594;2023-04-01T02:14:13;101568.28;;;20.90;52.18
53635;BME280;39542;-34.932;138.594;2023-04-01T02:14:52;101568.12;;;20.95;52.00
53635;BME280;39542;-34.932;138.594;2023-04-01T02:15:29;101565.80;;;20.96;52.04
53635;BME280;39542;-34.932;138.594;2023-04-01T02:16:11;101563.81;;;20.95;52.06
53635;BME280;39542;-34.932;138.594;2023-04-01T02:16:53;101562.69;;;20.95;52.11
53635;BME280;39542;-34.932;138.594;2023-04-01T02:17:31;101560.68;;;20.96;52.18
53635;BME280;39542;-34.932;138.594;2023-04-01T02:18:07;101564.89;;;20.95;52.29
53635;BME280;39542;-34.932;138.594;2023-04-01T02:18:43;101564.41;;;20.98;52.23
53635;BME280;39542;-34.932;138.594;2023-04-01T02:19:19;101564.07;;;20.99;52.17
53635;BME280;39542;-34.932;138.594;2023-04-01T02:19:59;101568.47;;;20.98;52.41
53635;BME280;39542;-34.932;138.594;2023-04-01T02:20:37;101569.98;;;20.97;52.35
53635;BME280;39542;-34.932;138.594;2023-04-01T02:21:13;101570.11;;;20.99;52.27
53635;BME280;39542;-34.932;138.594;2023-04-01T02:21:50;101568.23;;;20.97;52.31
53635;BME280;39542;-34.932;138.594;2023-04-01T02:22:28;101569.44;;;20.99;52.25
53635;BME280;39542;-34.932;138.594;2023-04-01T02:23:05;101571.85;;;21.05;52.18
53635;BME280;39542;-34.932;138.594;2023-04-01T02:23:44;101571.62;;;21.15;52.01
53635;BME280;39542;-34.932;138.594;2023-04-01T02:24:23;101570.92;;;21.19;51.95
53635;BME280;39542;-34.932;138.594;2023-04-01T02:25:04;101569.68;;;21.28;51.75
53635;BME280;39542;-34.932;138.594;2023-04-01T02:25:43;101571.44;;;21.35;51.64
53635;BME280;39542;-34.932;138.594;2023-04-01T02:26:21;101565.33;;;21.42;51.50
53635;BME280;39542;-34.932;138.594;2023-04-01T02:26:58;101566.57;;;21.49;51.40
53635;BME280;39542;-34.932;138.594;2023-04-01T02:27:35;101562.69;;;21.52;51.29
53635;BME280;39542;-34.932;138.594;2023-04-01T02:28:13;101564.54;;;21.58;51.21
53635;BME280;39542;-34.932;138.594;2023-04-01T02:28:50;101561.79;;;21.64;51.14
53635;BME280;39542;-34.932;138.594;2023-04-01T02:29:29;101562.39;;;21.68;51.06
53635;BME280;39542;-34.932;138.594;2023-04-01T02:30:05;101563.94;;;21.71;51.06
53635;BME280;39542;-34.932;138.594;2023-04-01T02:30:43;101562.61;;;21.73;51.02
53635;BME280;39542;-34.932;138.594;2023-04-01T02:31:19;101561.66;;;21.77;50.97
53635;BME280;39542;-34.932;138.594;2023-04-01T02:31:57;101560.28;;;21.79;50.96
53635;BME280;39542;-34.932;138.594;2023-04-01T02:32:36;101563.34;;;21.83;50.93
53635;BME280;39542;-34.932;138.594;2023-04-01T02:33:14;101560.53;;;21.84;50.83
53635;BME280;39542;-34.932;138.594;2023-04-01T02:33:50;101561.11;;;21.88;51.04
53635;BME280;39542;-34.932;138.594;2023-04-01T02:34:28;101562.55;;;21.88;50.87
53635;BME280;39542;-34.932;138.594;2023-04-01T02:35:05;101559.82;;;21.89;50.87
53635;BME280;39542;-34.932;138.594;2023-04-01T02:35:41;101561.08;;;21.89;50.83
53635;BME280;39542;-34.932;138.594;2023-04-01T02:36:17;101557.45;;;21.89;50.92
53635;BME280;39542;-34.932;138.594;2023-04-01T02:36:54;101556.22;;;21.87;50.93
53635;BME280;39542;-34.932;138.594;2023-04-01T02:37:31;101553.91;;;21.87;50.88
53635;BME280;39542;-34.932;138.594;2023-04-01T02:38:07;101553.79;;;21.87;50.94
53635;BME280;39542;-34.932;138.594;2023-04-01T02:38:44;101550.84;;;21.87;50.98
53635;BME280;39542;-34.932;138.594;2023-04-01T02:39:20;101555.06;;;21.88;50.97
53635;BME280;39542;-34.932;138.594;2023-04-01T02:39:59;101554.02;;;21.89;50.93
53635;BME280;39542;-34.932;138.594;2023-04-01T02:54:32;101540.00;;;21.14;51.91
53635;BME280;39542;-34.932;138.594;2023-04-01T02:55:08;101545.26;;;21.17;51.88
53635;BME280;39542;-34.932;138.594;2023-04-01T02:55:43;101540.44;;;21.20;51.80
53635;BME280;39542;-34.932;138.594;2023-04-01T02:56:17;101537.36;;;21.23;51.92
53635;BME280;39542;-34.932;138.594;2023-04-01T02:56:52;101542.99;;;21.20;51.82
53635;BME280;39542;-34.932;138.594;2023-04-01T02:57:27;101542.35;;;21.16;51.87
53635;BME280;39542;-34.932;138.594;2023-04-01T02:58:01;101541.63;;;21.13;51.95
53635;BME280;39542;-34.932;138.594;2023-04-01T02:58:36;101541.12;;;21.11;52.00
53635;BME280;39542;-34.932;138.594;2023-04-01T02:59:10;101538.85;;;21.05;52.10
53635;BME280;39542;-34.932;138.594;2023-04-01T02:59:44;101537.25;;;21.00;52.21
53635;BME280;39542;-34.932;138.594;2023-04-01T03:00:19;101539.47;;;20.99;52.20
53635;BME280;39542;-34.932;138.594;2023-04-01T03:00:53;101538.41;;;20.95;52.28
53635;BME280;39542;-34.932;138.594;2023-04-01T03:01:28;101535.99;;;20.90;52.23
53635;BME280;39542;-34.932;138.594;2023-04-01T03:02:02;101535.64;;;20.88;52.36
53635;BME280;39542;-34.932;138.594;2023-04-01T03:02:37;101532.08;;;20.86;52.39
53635;BME280;39542;-34.932;138.594;2023-04-01T03:03:13;101533.85;;;20.87;52.39
53635;BME280;39542;-34.932;138.594;2023-04-01T03:03:47;101529.44;;;20.84;52.47
53635;BME280;39542;-34.932;138.594;2023-04-01T03:04:22;101530.10;;;20.82;52.76
53635;BME280;39542;-34.932;138.594;2023-04-01T03:04:56;101530.35;;;20.82;52.45
53635;BME280;39542;-34.932;138.594;2023-04-01T03:05:30;101535.93;;;20.84;52.49
53635;BME280;39542;-34.932;138.594;2023-04-01T03:06:08;101529.93;;;20.79;52.49
53635;BME280;39542;-34.932;138.594;2023-04-01T03:06:43;101531.10;;;20.81;52.48
53635;BME280;39542;-34.932;138.594;2023-04-01T03:07:17;101528.61;;;20.81;52.46
53635;BME280;39542;-34.932;138.594;2023-04-01T03:07:51;101527.96;;;20.82;52.37
53635;BME280;39542;-34.932;138.594;2023-04-01T03:08:25;101525.80;;;20.81;52.48
53635;BME280;39542;-34.932;138.594;2023-04-01T03:09:00;101526.32;;;20.81;52.39
53635;BME280;39542;-34.932;138.594;2023-04-01T03:09:34;101526.16;;;20.83;52.41
53635;BME280;39542;-34.932;138.594;2023-04-01T03:10:09;101524.16;;;20.83;52.39
53635;BME280;39542;-34.932;138.594;2023-04-01T03:10:43;101526.35;;;20.83;52.37
53635;BME280;39542;-34.932;138.594;2023-04-01T03:11:18;101528.35;;;20.83;52.36
53635;BME280;39542;-34.932;138.594;2023-04-01T03:11:52;101523.38;;;20.85;52.40
53635;BME280;39542;-34.932;138.594;2023-04-01T03:12:27;101525.42;;;20.84;52.77
53635;BME280;39542;-34.932;138.594;2023-04-01T03:13:01;101527.68;;;20.81;52.43
53635;BME280;39542;-34.932;138.594;2023-04-01T03:13:35;101523.25;;;20.83;52.47
53635;BME280;39542;-34.932;138.594;2023-04-01T03:14:10;101520.15;;;20.84;52.36
53635;BME280;39542;-34.932;138.594;2023-04-01T03:14:44;101519.53;;;20.81;52.49
53635;BME280;39542;-34.932;138.594;2023-04-01T03:15:19;101521.03;;;20.85;52.40
53635;BME280;39542;-34.932;138.594;2023-04-01T03:15:53;101520.90;;;20.89;52.38
53635;BME280;39542;-34.932;138.594;2023-04-01T03:16:28;101517.17;;;20.85;52.37
53635;BME280;39542;-34.932;138.594;2023-04-01T03:17:02;101516.49;;;20.85;52.38
53635;BME280;39542;-34.932;138.594;2023-04-01T03:17:36;101519.90;;;20.84;52.37
53635;BME280;39542;-34.932;138.594;2023-04-01T03:18:10;101519.90;;;20.86;52.45
53635;BME280;39542;-34.932;138.594;2023-04-01T03:18:45;101514.11;;;20.86;52.32
53635;BME280;39542;-34.932;138.594;2023-04-01T03:19:19;101513.27;;;20.88;52.39
53635;BME280;39542;-34.932;138.594;2023-04-01T03:19:53;101514.85;;;20.84;52.46
53635;BME280;39542;-34.932;138.594;2023-04-01T03:20:28;101516.19;;;20.86;52.39
53635;BME280;39542;-34.932;138.594;2023-04-01T03:21:15;101515.14;;;20.84;52.46
53635;BME280;39542;-34.932;138.594;2023-04-01T03:21:50;101514.55;;;20.86;52.38
53635;BME280;39542;-34.932;138.594;2023-04-01T03:22:25;101513.02;;;20.86;52.38
53635;BME280;39542;-34.932;138.594;2023-04-01T03:22:59;101508.36;;;20.85;52.49
53635;BME280;39542;-34.932;138.594;2023-04-01T03:23:33;101508.38;;;20.86;52.31
53635;BME280;39542;-34.932;138.594;2023-04-01T03:24:08;101510.32;;;20.86;52.35
53635;BME280;39542;-34.932;138.594;2023-04-01T03:24:42;101510.11;;;20.85;52.55